Portada
METAR-TAF:

METAR-TAF

Aeroports :

Metropolis Municipal Airport

Metropolis, Illinois, Estats Units d'Amèrica

latitud: 37-11-09N, longitud: 088-45-02W, altitud: 117 m

Observació

L'informe es va fer fa 19 minuts, a les 17:55 UTC
Vent 4 kt del Oest
Temperatura 30°C
Humitat 55%
Pressió 1016 hPa
Visibilitat: 8.0 km
Cel clar
calitja

METAR: KM30 111755Z AUTO 28004KT 5SM HZ CLR 30/20 A2999 RMK AO2 T03040196 10305 20195

Hora: 13:14 (18:14 UTC)


TAF: manca

Observacions i pronòstics meteorològics de més de 4000 aeroports (METAR i TAF).

Les estacions disponibles són els punts grocs i vermells al mapa.

Posi el ratolí al punt desitjat per veure el nom de l'estació.

Feu clic per veure les observacions i els pronòstics meteorològics.

Per canviar el mapa: feu clic els botons verds amb una creu de color negre per apropar; al botó verd amb un guió per allunyar la imatge; o en les fletxes verdes per a mapes adjacents.


METAR-TAF: